OTBH/IUD METAR and TAF weather

Enter ICAO airport designator
Station Type Date Time Source
OTBH METAR 2022/11/27 08:55 UTC NOAA

OTBH 270855Z 29013KT 9999 CLR 31/12 A2993 RMK AO2A SLP136 T03110115 PWINO FZRANO TSNO $


Station Type Date Time Source
OTBH Decoded METAR 2022/11/27 08:55 UTC NOAA

Station name not available
Nov 27, 2022 - 03:55 AM EST / 2022.11.27 0855 UTC
Wind: from the WNW (290 degrees) at 15 MPH (13 KT):0
Visibility: greater than 7 mile(s):0
Sky conditions: clear
Temperature: 88.0 F (31.1 C)
Dew Point: 52.7 F (11.5 C)
Relative Humidity: 30%
Pressure (altimeter): 29.93 in. Hg (1013 hPa)
ob: OTBH 270855Z 29013KT 9999 CLR 31/12 A2993 RMK AO2A SLP136 T03110115 PWINO FZRANO TSNO
cycle: 9

Station Type Date Time Source
OTBH TAF 2022/11/27 08:15 UTC NOAA

TAF TAF OTBH 270800Z 2708/2814 32010KT 9000 HZ FEW250 QNH2989INS
TEMPO 2709/2714 33012G18KT 8000 DU
BECMG 2715/2716 34006KT 9999 NSW FEW250 QNH2990INS
BECMG 2805/2806 34010G20KT 8000 HZ FEW200 QNH2991INS
TEMPO 2807/2814 35015G25KT 6000 BLDU TX32/2711Z TN21/2803Z

Example: see airport list